createdAt,value
2022-09-09T00:01:10.881Z,99859.84
2022-09-09T00:06:23.693Z,99854.94
2022-09-09T00:11:50.683Z,99855.28
2022-09-09T00:17:04.341Z,99857.28
2022-09-09T00:22:18.250Z,99854.34
2022-09-09T00:27:32.811Z,99861.84
2022-09-09T00:32:39.975Z,99858.09
2022-09-09T00:37:47.101Z,99860.09
2022-09-09T00:43:09.486Z,99857.81
2022-09-09T00:48:17.988Z,99863.25
2022-09-09T00:53:35.597Z,99864.41
2022-09-09T00:58:39.844Z,99851.56
2022-09-09T01:03:52.069Z,99851.13
2022-09-09T01:09:21.826Z,99863.03
2022-09-09T01:14:35.273Z,99852.34
2022-09-09T01:19:54.002Z,99856.34
2022-09-09T01:25:32.690Z,99859.19
2022-09-09T01:30:43.367Z,99847.16
2022-09-09T01:35:52.402Z,99859.34
2022-09-09T01:40:57.148Z,99850.78
2022-09-09T01:46:04.072Z,99850.94
2022-09-09T01:51:08.713Z,99849.31
2022-09-09T01:56:27.588Z,99843.22
2022-09-09T02:01:45.889Z,99843.03
2022-09-09T02:07:03.581Z,99852.13
2022-09-09T02:12:17.231Z,99848.66
2022-09-09T02:17:29.185Z,99847.84
2022-09-09T02:22:37.473Z,99845.22
2022-09-09T02:27:59.849Z,99859.59
2022-09-09T02:33:20.101Z,99862.38
2022-09-09T02:38:32.909Z,99866.38
2022-09-09T02:43:38.318Z,99855.53
2022-09-09T02:48:51.029Z,99855.69
2022-09-09T02:54:13.595Z,99857.88
2022-09-09T02:59:17.879Z,99853.94
2022-09-09T03:04:23.328Z,99856.41
2022-09-09T03:09:27.585Z,99861.84
2022-09-09T03:14:41.530Z,99865.47
2022-09-09T03:19:50.734Z,99864.84
2022-09-09T03:24:56.756Z,99863.19
2022-09-09T03:30:06.574Z,99865.97
2022-09-09T03:35:31.843Z,99858.25
2022-09-09T03:40:38.328Z,99862.22
2022-09-09T03:45:42.802Z,99859.91
2022-09-09T03:50:54.323Z,99848.41
2022-09-09T03:56:03.573Z,99848.72
2022-09-09T04:01:11.964Z,99853.34
2022-09-09T04:06:32.664Z,99845.63
2022-09-09T04:11:41.124Z,99855.34
2022-09-09T04:16:48.850Z,99852.06
2022-09-09T04:22:06.007Z,99852.22
2022-09-09T04:27:12.408Z,99859.34
2022-09-09T04:32:28.318Z,99857.00
2022-09-09T04:37:36.921Z,99863.56
2022-09-09T04:42:58.018Z,99863.03
2022-09-09T04:48:06.291Z,99858.25
2022-09-09T04:53:18.588Z,99864.84
2022-09-09T04:58:27.501Z,99854.94
2022-09-09T05:03:31.327Z,99874.38
2022-09-09T05:08:36.852Z,99880.72
2022-09-09T05:13:43.886Z,99882.97
2022-09-09T05:18:48.235Z,99875.66
2022-09-09T05:23:53.099Z,99873.94
2022-09-09T05:28:56.447Z,99885.75
2022-09-09T05:34:00.313Z,99898.69
2022-09-09T05:39:21.623Z,99884.25
2022-09-09T05:44:29.643Z,99885.00
2022-09-09T05:49:35.977Z,99894.50
2022-09-09T05:54:41.312Z,99894.06
2022-09-09T05:59:44.842Z,99891.16
2022-09-09T06:04:48.093Z,99891.72
2022-09-09T06:09:56.058Z,99893.38
2022-09-09T06:15:15.376Z,99888.16
2022-09-09T06:20:23.310Z,99890.38
2022-09-09T06:25:33.108Z,99886.97
2022-09-09T06:30:39.698Z,99885.03
2022-09-09T06:35:44.589Z,99888.66
2022-09-09T06:40:58.938Z,99897.97
2022-09-09T06:46:05.043Z,99892.69
2022-09-09T06:51:13.094Z,99900.06
2022-09-09T06:56:25.096Z,99895.94
2022-09-09T07:01:37.952Z,99899.16
2022-09-09T07:06:47.503Z,99914.50
2022-09-09T07:11:54.602Z,99901.56
2022-09-09T07:17:00.008Z,99902.19
2022-09-09T07:22:04.670Z,99901.88
2022-09-09T07:27:10.234Z,99897.09
2022-09-09T07:32:15.643Z,99898.56
2022-09-09T07:37:19.065Z,99893.16
2022-09-09T07:42:39.484Z,99911.19
2022-09-09T07:47:45.232Z,99915.41
2022-09-09T07:52:49.039Z,99916.13
2022-09-09T07:57:55.952Z,99913.88
2022-09-09T08:03:02.208Z,99918.06
2022-09-09T08:08:09.418Z,99919.59
2022-09-09T08:13:21.140Z,99912.28
2022-09-09T08:18:31.570Z,99915.69
2022-09-09T08:23:37.720Z,99916.94
2022-09-09T08:28:45.579Z,99915.97
2022-09-09T08:33:53.113Z,99922.81
2022-09-09T08:38:58.856Z,99917.41
2022-09-09T08:44:11.690Z,99920.13
2022-09-09T08:49:35.719Z,99915.19
2022-09-09T08:54:52.264Z,99918.34
2022-09-09T09:00:01.764Z,99915.31
2022-09-09T09:05:21.812Z,99923.19
2022-09-09T09:10:42.787Z,99920.19
2022-09-09T09:16:02.218Z,99915.94
2022-09-09T09:21:18.242Z,99915.88
2022-09-09T09:26:24.701Z,99914.91
2022-09-09T09:31:39.191Z,99916.03
2022-09-09T09:36:47.824Z,99910.31
2022-09-09T09:41:51.717Z,99907.25
2022-09-09T09:47:09.829Z,99911.56
2022-09-09T09:52:20.025Z,99916.53
2022-09-09T09:57:30.392Z,99905.91
2022-09-09T10:03:02.224Z,99908.16
2022-09-09T10:08:07.790Z,99905.38
2022-09-09T10:13:20.114Z,99906.38
2022-09-09T10:18:43.579Z,99913.81
2022-09-09T10:24:14.186Z,99917.22
2022-09-09T10:29:33.266Z,99902.31
2022-09-09T10:34:54.512Z,99910.84
2022-09-09T10:40:06.812Z,99900.34
2022-09-09T10:45:21.949Z,99901.00
2022-09-09T10:51:04.575Z,99905.28
2022-09-09T10:56:13.794Z,99902.03
2022-09-09T11:01:21.610Z,99888.88
2022-09-09T11:06:32.317Z,99899.47
2022-09-09T11:11:39.588Z,99888.69
2022-09-09T11:16:49.842Z,99894.41
2022-09-09T11:21:59.082Z,99892.66
2022-09-09T11:27:13.218Z,99880.94
2022-09-09T11:32:51.609Z,99862.72
2022-09-09T11:38:19.138Z,99872.44
2022-09-09T11:43:31.496Z,99859.84
2022-09-09T11:48:38.011Z,99858.69
2022-09-09T11:54:06.374Z,99860.19
2022-09-09T11:59:24.147Z,99864.03
2022-09-09T12:04:37.872Z,99863.13
2022-09-09T12:09:53.008Z,99869.28
2022-09-09T12:15:03.658Z,99867.91
2022-09-09T12:20:15.763Z,99858.22
2022-09-09T12:25:28.913Z,99853.94
2022-09-09T12:30:38.286Z,99849.59
2022-09-09T12:35:45.685Z,99843.09
2022-09-09T12:40:58.470Z,99831.91
2022-09-09T12:46:05.366Z,99827.47
2022-09-09T12:51:21.906Z,99841.13
2022-09-09T12:56:31.204Z,99838.19
2022-09-09T13:01:40.142Z,99820.97
2022-09-09T13:06:43.445Z,99818.97
2022-09-09T13:11:52.892Z,99824.81
2022-09-09T13:17:01.924Z,99814.78
2022-09-09T13:22:16.905Z,99809.56
2022-09-09T13:27:31.723Z,99804.66
2022-09-09T13:32:38.481Z,99808.41
2022-09-09T13:37:42.548Z,99816.53
2022-09-09T13:42:47.624Z,99808.41
2022-09-09T13:47:53.887Z,99813.13
2022-09-09T13:52:59.002Z,99812.91
2022-09-09T13:58:06.838Z,99813.13
2022-09-09T14:03:11.186Z,99827.53
2022-09-09T14:08:23.813Z,99833.84
2022-09-09T14:13:29.179Z,99843.19
2022-09-09T14:18:33.557Z,99841.22
2022-09-09T14:23:36.903Z,99841.38
2022-09-09T14:28:57.653Z,99830.47
2022-09-09T14:34:01.274Z,99821.28
2022-09-09T14:39:05.167Z,99818.38
2022-09-09T14:44:12.799Z,99807.25
2022-09-09T14:49:16.657Z,99813.22
2022-09-09T14:54:24.021Z,99797.19
2022-09-09T14:59:29.092Z,99793.09
2022-09-09T15:04:33.700Z,99799.75
2022-09-09T15:09:38.910Z,99800.47
2022-09-09T15:14:43.804Z,99804.69
2022-09-09T15:19:48.403Z,99811.59
2022-09-09T15:24:53.700Z,99819.66
2022-09-09T15:29:59.330Z,99809.56
2022-09-09T15:35:02.602Z,99807.19
2022-09-09T15:40:07.914Z,99811.59
2022-09-09T15:45:14.207Z,99808.53
2022-09-09T15:50:17.819Z,99802.22
2022-09-09T15:55:21.703Z,99812.16
2022-09-09T16:00:27.500Z,99815.13
2022-09-09T16:05:30.549Z,99813.34
2022-09-09T16:10:35.901Z,99815.84
2022-09-09T16:15:41.154Z,99808.13
2022-09-09T16:20:44.951Z,99806.13
2022-09-09T16:25:56.515Z,99804.09
2022-09-09T16:31:07.875Z,99807.03
2022-09-09T16:36:14.988Z,99809.16
2022-09-09T16:41:18.400Z,99813.75
2022-09-09T16:46:25.563Z,99805.78
2022-09-09T16:51:31.064Z,99808.13
2022-09-09T16:56:37.476Z,99811.06
2022-09-09T17:01:44.334Z,99823.00
2022-09-09T17:06:49.475Z,99819.19
2022-09-09T17:11:54.351Z,99826.63
2022-09-09T17:17:14.059Z,99834.22
2022-09-09T17:22:27.652Z,99841.44
2022-09-09T17:27:32.488Z,99840.06
2022-09-09T17:32:37.553Z,99838.84
2022-09-09T17:37:41.965Z,99844.03
2022-09-09T17:42:46.482Z,99856.16
2022-09-09T17:52:55.056Z,99857.19
2022-09-09T17:58:00.202Z,99852.72
2022-09-09T18:03:05.159Z,99859.31
2022-09-09T18:08:08.777Z,99855.22
2022-09-09T18:13:12.914Z,99864.63
2022-09-09T18:18:18.464Z,99864.03
2022-09-09T18:23:22.251Z,99875.06
2022-09-09T18:28:26.657Z,99886.53
2022-09-09T18:33:38.031Z,99880.97
2022-09-09T18:38:44.226Z,99881.56
2022-09-09T18:43:48.548Z,99882.97
2022-09-09T18:48:57.097Z,99885.38
2022-09-09T18:54:04.319Z,99888.63
2022-09-09T18:59:10.389Z,99903.50
2022-09-09T19:04:16.642Z,99905.53
2022-09-09T19:09:20.671Z,99912.63
2022-09-09T19:14:28.591Z,99913.41
2022-09-09T19:19:37.269Z,99918.28
2022-09-09T19:24:40.886Z,99926.19
2022-09-09T19:29:47.393Z,99923.09
2022-09-09T19:34:52.389Z,99929.38
2022-09-09T19:39:58.888Z,99932.81
2022-09-09T19:45:03.799Z,99933.78
2022-09-09T19:50:10.148Z,99938.88
2022-09-09T19:55:19.435Z,99943.13
2022-09-09T20:00:23.254Z,99937.38
2022-09-09T20:05:28.032Z,99947.47
2022-09-09T20:10:32.137Z,99938.66
2022-09-09T20:15:38.094Z,99951.06
2022-09-09T20:20:44.230Z,99952.81
2022-09-09T20:25:49.921Z,99955.22
2022-09-09T20:30:54.960Z,99959.63
2022-09-09T20:36:05.309Z,99963.66
2022-09-09T20:41:14.489Z,99962.84
2022-09-09T20:46:19.442Z,99957.53
2022-09-09T20:51:28.100Z,99967.06
2022-09-09T20:56:34.018Z,99960.31
2022-09-09T21:01:37.424Z,99965.53
2022-09-09T21:06:42.399Z,99958.81
2022-09-09T21:11:47.846Z,99958.53
2022-09-09T21:16:51.315Z,99958.09
2022-09-09T21:21:57.299Z,99960.31
2022-09-09T21:27:00.849Z,99959.22
2022-09-09T21:32:04.566Z,99965.06
2022-09-09T21:37:10.478Z,99962.00
2022-09-09T21:42:15.471Z,99965.38
2022-09-09T21:47:18.993Z,99963.31
2022-09-09T21:52:29.238Z,99966.69
2022-09-09T21:57:32.321Z,99947.25
2022-09-09T22:02:38.311Z,99954.66
2022-09-09T22:07:44.616Z,99959.06
2022-09-09T22:12:49.233Z,99953.81
2022-09-09T22:17:53.394Z,99944.53
2022-09-09T22:22:58.212Z,99954.00
2022-09-09T22:28:03.705Z,99946.00
2022-09-09T22:33:07.247Z,99950.84
2022-09-09T22:38:14.214Z,99955.28
2022-09-09T22:43:21.213Z,99967.88
2022-09-09T22:48:24.671Z,99965.44
2022-09-09T22:53:31.863Z,99964.81
2022-09-09T22:58:39.025Z,99962.50
2022-09-09T23:03:43.873Z,99965.69
2022-09-09T23:08:50.303Z,99967.03
2022-09-09T23:13:56.222Z,99963.97
2022-09-09T23:19:00.924Z,99956.41
2022-09-09T23:24:08.652Z,99959.56
2022-09-09T23:29:15.430Z,99957.47
2022-09-09T23:34:19.472Z,99955.34
2022-09-09T23:39:24.325Z,99942.22
2022-09-09T23:44:28.008Z,99936.31
2022-09-09T23:49:32.067Z,99945.41
2022-09-09T23:54:37.539Z,99947.56
2022-09-09T23:59:41.650Z,99944.47
